createdAt,value
2023-04-05T00:02:05.137Z,67.12
2023-04-05T00:04:32.717Z,67.69
2023-04-05T00:07:00.948Z,68.72
2023-04-05T00:09:27.962Z,68.65
2023-04-05T00:11:54.785Z,68.52
2023-04-05T00:14:21.592Z,68.83
2023-04-05T00:16:48.660Z,68.37
2023-04-05T00:19:17.145Z,69.63
2023-04-05T00:21:44.044Z,72.08
2023-04-05T00:24:10.898Z,71.81
2023-04-05T00:26:37.800Z,71.41
2023-04-05T00:29:04.701Z,72.40
2023-04-05T00:31:31.600Z,71.59
2023-04-05T00:33:58.544Z,71.55
2023-04-05T00:36:26.915Z,70.77
2023-04-05T00:38:55.338Z,70.39
2023-04-05T00:41:23.567Z,69.72
2023-04-05T00:43:50.414Z,69.12
2023-04-05T00:46:17.468Z,68.75
2023-04-05T00:48:44.687Z,69.07
2023-04-05T00:51:11.748Z,69.91
2023-04-05T00:53:41.085Z,69.77
2023-04-05T00:56:09.210Z,70.35
2023-04-05T00:58:36.123Z,72.51
2023-04-05T01:01:10.318Z,73.60
2023-04-05T01:03:41.170Z,72.47
2023-04-05T01:06:27.997Z,70.50
2023-04-05T01:09:14.584Z,69.84
2023-04-05T01:11:45.064Z,69.27
2023-04-05T01:14:11.936Z,70.05
2023-04-05T01:16:39.148Z,70.51
2023-04-05T01:19:06.610Z,70.21
2023-04-05T01:22:10.705Z,70.32
2023-04-05T01:25:11.897Z,71.06
2023-04-05T01:28:10.680Z,71.26
2023-04-05T01:30:44.096Z,71.94
2023-04-05T01:33:22.856Z,73.06
2023-04-05T01:35:59.412Z,73.22
2023-04-05T01:38:28.581Z,72.41
2023-04-05T01:40:56.264Z,72.43
2023-04-05T01:43:23.463Z,72.14
2023-04-05T01:45:51.802Z,72.00
2023-04-05T01:48:18.898Z,71.56
2023-04-05T01:50:45.712Z,71.27
2023-04-05T01:53:13.259Z,70.96
2023-04-05T01:55:40.902Z,70.95
2023-04-05T01:58:08.770Z,71.19
2023-04-05T02:00:35.612Z,71.27
2023-04-05T02:03:04.513Z,72.11
2023-04-05T02:05:33.298Z,71.96
2023-04-05T02:08:00.197Z,72.07
2023-04-05T02:10:27.080Z,71.92
2023-04-05T02:12:54.887Z,72.06
2023-04-05T02:15:21.763Z,71.76
2023-04-05T02:17:48.625Z,71.64
2023-04-05T02:20:16.884Z,71.86
2023-04-05T02:22:44.028Z,72.01
2023-04-05T02:25:11.517Z,71.93
2023-04-05T02:27:38.995Z,71.94
2023-04-05T02:30:07.562Z,71.74
2023-04-05T02:32:35.197Z,72.45
2023-04-05T02:35:02.921Z,73.08
2023-04-05T02:37:31.473Z,73.10
2023-04-05T02:39:58.337Z,73.88
2023-04-05T02:46:33.382Z,74.43
2023-04-05T02:49:01.137Z,74.20
2023-04-05T02:51:30.234Z,73.95
2023-04-05T02:53:59.024Z,74.06
2023-04-05T02:56:25.973Z,74.42
2023-04-05T02:58:53.465Z,73.91
2023-04-05T03:01:24.244Z,74.04
2023-04-05T03:03:51.437Z,73.97
2023-04-05T03:06:39.650Z,74.06
2023-04-05T03:09:09.061Z,73.98
2023-04-05T03:11:36.951Z,74.16
2023-04-05T03:14:04.531Z,74.99
2023-04-05T03:16:41.863Z,76.24
2023-04-05T03:19:20.051Z,76.32
2023-04-05T03:21:47.552Z,76.33
2023-04-05T03:24:26.153Z,76.16
2023-04-05T03:26:55.915Z,76.20
2023-04-05T03:29:24.983Z,76.49
2023-04-05T03:31:53.804Z,76.79
2023-04-05T03:34:23.411Z,76.18
2023-04-05T03:36:50.950Z,75.49
2023-04-05T03:39:34.820Z,76.40
2023-04-05T03:42:02.536Z,75.93
2023-04-05T03:44:29.389Z,75.75
2023-04-05T03:46:56.348Z,75.90
2023-04-05T03:49:23.629Z,76.02
2023-04-05T03:51:50.515Z,76.78
2023-04-05T03:54:18.951Z,76.40
2023-04-05T03:56:47.458Z,76.45
2023-04-05T03:59:18.200Z,76.38
2023-04-05T04:01:45.356Z,76.40
2023-04-05T04:04:12.248Z,76.83
2023-04-05T04:06:41.337Z,76.64
2023-04-05T04:09:08.860Z,76.20
2023-04-05T04:11:36.082Z,76.04
2023-04-05T04:14:07.000Z,77.38
2023-04-05T04:16:46.213Z,79.25
2023-04-05T04:19:38.334Z,78.89
2023-04-05T04:22:23.630Z,78.28
2023-04-05T04:25:12.129Z,77.70
2023-04-05T04:27:58.742Z,77.90
2023-04-05T04:31:02.803Z,77.88
2023-04-05T04:33:52.780Z,78.90
2023-04-05T04:36:37.666Z,79.42
2023-04-05T04:39:37.367Z,78.94
2023-04-05T04:42:34.282Z,79.55
2023-04-05T04:45:15.512Z,79.02
2023-04-05T04:48:04.975Z,79.50
2023-04-05T04:50:50.829Z,79.96
2023-04-05T04:53:18.701Z,79.15
2023-04-05T04:55:45.852Z,78.82
2023-04-05T04:58:13.768Z,78.59
2023-04-05T05:00:43.843Z,77.67
2023-04-05T05:03:13.020Z,77.76
2023-04-05T05:05:44.413Z,76.92
2023-04-05T05:08:12.556Z,76.45
2023-04-05T05:10:41.845Z,76.10
2023-04-05T05:13:09.144Z,75.49
2023-04-05T05:15:36.539Z,74.20
2023-04-05T05:18:03.698Z,72.83
2023-04-05T05:20:33.255Z,71.41
2023-04-05T05:23:00.224Z,70.30
2023-04-05T05:25:27.879Z,68.59
2023-04-05T05:27:55.584Z,65.87
2023-04-05T05:30:25.737Z,62.80
2023-04-05T05:32:52.859Z,61.44
2023-04-05T05:35:19.805Z,60.10
2023-04-05T05:37:48.171Z,58.21
2023-04-05T05:40:15.181Z,57.42
2023-04-05T05:42:42.286Z,57.92
2023-04-05T05:45:10.768Z,58.67
2023-04-05T05:47:37.706Z,58.98
2023-04-05T05:50:07.601Z,58.45
2023-04-05T05:52:34.765Z,57.60
2023-04-05T05:55:03.042Z,54.92
2023-04-05T05:57:30.031Z,52.98
2023-04-05T05:59:56.928Z,50.45
2023-04-05T06:02:24.693Z,49.13
2023-04-05T06:04:51.626Z,47.95
2023-04-05T06:07:18.528Z,45.92
2023-04-05T06:09:45.564Z,44.26
2023-04-05T06:12:13.773Z,43.04
2023-04-05T06:14:41.398Z,43.54
2023-04-05T06:17:08.240Z,43.43
2023-04-05T06:19:35.219Z,42.85
2023-04-05T06:22:02.053Z,41.73
2023-04-05T06:24:29.137Z,42.34
2023-04-05T06:26:56.524Z,43.79
2023-04-05T06:29:24.834Z,45.76
2023-04-05T06:31:51.765Z,44.39
2023-04-05T06:34:18.837Z,41.69
2023-04-05T06:36:46.659Z,40.18
2023-04-05T06:39:13.854Z,39.82
2023-04-05T06:41:40.961Z,38.21
2023-04-05T06:44:07.931Z,38.24
2023-04-05T06:46:36.865Z,36.51
2023-04-05T06:49:04.242Z,36.26
2023-04-05T06:51:31.422Z,34.83
2023-04-05T06:53:58.364Z,35.00
2023-04-05T06:56:25.644Z,34.55
2023-04-05T06:58:52.620Z,34.52
2023-04-05T07:01:19.548Z,34.24
2023-04-05T07:03:47.861Z,35.55
2023-04-05T07:06:14.750Z,36.90
2023-04-05T07:08:41.737Z,37.22
2023-04-05T07:11:08.846Z,35.12
2023-04-05T07:13:35.711Z,35.32
2023-04-05T07:16:03.853Z,34.92
2023-04-05T07:18:30.981Z,32.71
2023-04-05T07:21:00.712Z,31.24
2023-04-05T07:23:28.421Z,31.67
2023-04-05T07:25:59.184Z,32.23
2023-04-05T07:28:26.372Z,30.12
2023-04-05T07:30:53.284Z,30.90
2023-04-05T07:33:21.548Z,29.74
2023-04-05T07:35:52.641Z,29.37
2023-04-05T07:38:21.403Z,28.38
2023-04-05T07:40:48.883Z,28.60
2023-04-05T07:43:15.872Z,28.07
2023-04-05T07:45:43.084Z,28.83
2023-04-05T07:48:10.224Z,28.20
2023-04-05T07:50:41.477Z,27.04
2023-04-05T07:53:08.608Z,27.14
2023-04-05T07:55:39.056Z,27.05
2023-04-05T07:58:05.970Z,27.41
2023-04-05T08:00:33.086Z,27.60
2023-04-05T08:03:02.112Z,26.45
2023-04-05T08:06:22.839Z,25.89
2023-04-05T08:08:50.576Z,26.96
2023-04-05T08:11:19.213Z,29.68
2023-04-05T08:13:46.526Z,27.59
2023-04-05T08:16:13.437Z,26.27
2023-04-05T08:18:40.424Z,25.52
2023-04-05T08:21:07.396Z,26.01
2023-04-05T08:23:34.285Z,26.03
2023-04-05T08:26:01.728Z,25.56
2023-04-05T08:28:30.205Z,25.02
2023-04-05T08:30:57.165Z,26.60
2023-04-05T08:33:24.313Z,28.79
2023-04-05T08:35:51.312Z,28.64
2023-04-05T08:38:18.388Z,27.66
2023-04-05T08:40:47.523Z,26.94
2023-04-05T08:43:25.648Z,27.57
2023-04-05T08:45:57.531Z,28.72
2023-04-05T08:48:24.947Z,29.58
2023-04-05T08:51:45.112Z,29.52
2023-04-05T08:54:12.097Z,28.91
2023-04-05T08:56:40.409Z,28.83
2023-04-05T08:59:11.039Z,26.65
2023-04-05T09:01:45.085Z,26.68
2023-04-05T09:04:16.997Z,29.65
2023-04-05T09:07:21.946Z,32.21
2023-04-05T09:09:54.600Z,33.50
2023-04-05T09:12:24.748Z,33.04
2023-04-05T09:14:53.599Z,34.13
2023-04-05T09:17:23.320Z,35.47
2023-04-05T09:19:50.930Z,35.24
2023-04-05T09:22:17.910Z,34.31
2023-04-05T09:24:47.289Z,33.35
2023-04-05T09:27:20.525Z,32.56
2023-04-05T09:29:54.233Z,34.31
2023-04-05T09:32:26.795Z,32.71
2023-04-05T09:34:55.364Z,31.49
2023-04-05T09:37:28.757Z,31.44
2023-04-05T09:40:04.980Z,31.03
2023-04-05T09:42:44.680Z,30.07
2023-04-05T09:45:12.651Z,29.65
2023-04-05T09:48:01.334Z,30.04
2023-04-05T09:50:28.494Z,27.10
2023-04-05T09:53:10.376Z,26.91
2023-04-05T09:55:37.754Z,26.23
2023-04-05T09:58:04.971Z,26.96
2023-04-05T10:00:32.774Z,27.04
2023-04-05T10:03:01.105Z,24.32
2023-04-05T10:05:29.576Z,22.99
2023-04-05T10:07:56.845Z,22.66
2023-04-05T10:10:25.833Z,22.72
2023-04-05T10:12:54.058Z,22.82
2023-04-05T10:15:23.211Z,25.58
2023-04-05T10:17:55.755Z,26.58
2023-04-05T10:20:27.321Z,29.41
2023-04-05T10:23:08.088Z,30.00
2023-04-05T10:25:57.400Z,28.49
2023-04-05T10:28:31.844Z,28.42
2023-04-05T10:31:10.935Z,26.30
2023-04-05T10:33:47.614Z,25.42
2023-04-05T10:36:35.459Z,25.28
2023-04-05T10:39:11.059Z,24.92
2023-04-05T10:42:11.255Z,27.87
2023-04-05T10:44:43.429Z,25.92
2023-04-05T10:47:17.033Z,29.83
2023-04-05T10:49:51.487Z,29.16
2023-04-05T10:52:22.483Z,27.41
2023-04-05T10:56:06.182Z,27.51
2023-04-05T10:58:35.455Z,24.59
2023-04-05T11:01:04.952Z,23.34
2023-04-05T11:03:49.322Z,23.29
2023-04-05T11:06:31.776Z,22.13
2023-04-05T11:09:11.124Z,22.21
2023-04-05T11:11:41.721Z,21.83
2023-04-05T11:14:23.954Z,21.50
2023-04-05T11:16:54.773Z,21.59
2023-04-05T11:19:51.111Z,22.01
2023-04-05T11:22:26.510Z,21.59
2023-04-05T11:24:58.308Z,21.58
2023-04-05T11:27:30.469Z,21.81
2023-04-05T11:29:59.664Z,21.52
2023-04-05T11:32:39.887Z,22.31
2023-04-05T11:35:13.158Z,22.59
2023-04-05T11:38:08.637Z,21.64
2023-04-05T11:40:40.102Z,21.16
2023-04-05T11:43:12.117Z,22.49
2023-04-05T11:45:41.837Z,21.79
2023-04-05T11:48:11.261Z,22.56
2023-04-05T11:50:41.497Z,22.78
2023-04-05T11:53:13.521Z,23.32
2023-04-05T11:55:44.616Z,23.15
2023-04-05T11:58:13.867Z,24.30
2023-04-05T12:00:46.927Z,23.40
2023-04-05T12:04:02.991Z,25.66
2023-04-05T12:06:30.400Z,25.31
2023-04-05T12:08:58.053Z,24.35
2023-04-05T12:11:28.346Z,24.68
2023-04-05T12:13:58.320Z,26.82
2023-04-05T12:16:26.218Z,27.56
2023-04-05T12:18:57.104Z,26.66
2023-04-05T12:21:25.413Z,28.15
2023-04-05T12:23:54.091Z,28.88
2023-04-05T12:26:21.717Z,27.80
2023-04-05T12:28:55.721Z,31.39
2023-04-05T12:31:37.139Z,32.63
2023-04-05T12:34:04.427Z,32.33
2023-04-05T12:36:31.929Z,32.79
2023-04-05T12:38:59.759Z,32.66
2023-04-05T12:41:30.746Z,32.94
2023-04-05T12:43:59.729Z,32.04
2023-04-05T12:46:39.984Z,31.57
2023-04-05T12:49:10.121Z,31.91
2023-04-05T12:51:41.116Z,32.01
2023-04-05T12:54:08.218Z,31.35
2023-04-05T12:56:35.096Z,33.92
2023-04-05T12:59:06.378Z,33.83
2023-04-05T13:01:34.462Z,34.76
2023-04-05T13:04:15.552Z,34.34
2023-04-05T13:06:45.088Z,32.77
2023-04-05T13:09:11.923Z,32.56
2023-04-05T13:11:38.816Z,32.80
2023-04-05T13:14:07.498Z,31.94
2023-04-05T13:16:34.609Z,31.48
2023-04-05T13:19:01.649Z,32.00
2023-04-05T13:21:28.647Z,31.96
2023-04-05T13:23:55.623Z,32.04
2023-04-05T13:26:22.452Z,32.98
2023-04-05T13:28:49.533Z,31.98
2023-04-05T13:31:37.482Z,31.54
2023-04-05T13:34:05.602Z,31.44
2023-04-05T13:36:35.781Z,32.26
2023-04-05T13:39:03.064Z,31.13
2023-04-05T13:41:30.062Z,31.49
2023-04-05T13:43:56.957Z,31.10
2023-04-05T13:46:23.972Z,30.93
2023-04-05T13:48:52.568Z,31.40
2023-04-05T13:51:19.799Z,31.67
2023-04-05T13:53:47.296Z,32.62
2023-04-05T13:56:14.403Z,32.08
2023-04-05T13:58:41.598Z,31.36
2023-04-05T14:01:09.090Z,33.26
2023-04-05T14:03:36.365Z,33.05
2023-04-05T14:06:04.988Z,33.05
2023-04-05T14:08:32.112Z,33.47
2023-04-05T14:10:59.562Z,36.17
2023-04-05T14:13:26.440Z,34.79
2023-04-05T14:15:54.057Z,32.86
2023-04-05T14:18:21.387Z,33.04
2023-04-05T14:20:48.399Z,31.33
2023-04-05T14:23:16.788Z,31.67
2023-04-05T14:25:43.854Z,31.09
2023-04-05T14:28:10.971Z,30.55
2023-04-05T14:30:38.062Z,30.08
2023-04-05T14:33:05.866Z,31.64
2023-04-05T14:35:33.983Z,30.19
2023-04-05T14:38:01.040Z,30.51
2023-04-05T14:40:29.640Z,30.61
2023-04-05T14:42:56.774Z,32.46
2023-04-05T14:45:23.837Z,31.39
2023-04-05T14:47:54.622Z,31.14
2023-04-05T14:50:26.401Z,30.75
2023-04-05T14:52:55.972Z,31.37
2023-04-05T14:55:31.911Z,31.42
2023-04-05T14:58:12.513Z,31.96
2023-04-05T15:00:48.294Z,34.85
2023-04-05T15:03:21.184Z,34.35
2023-04-05T15:05:50.630Z,33.44
2023-04-05T15:08:24.045Z,31.86
2023-04-05T15:10:55.634Z,32.61
2023-04-05T15:13:29.585Z,32.90
2023-04-05T15:15:59.910Z,33.11
2023-04-05T15:18:28.501Z,33.40
2023-04-05T15:21:00.427Z,32.35
2023-04-05T15:23:32.064Z,32.51
2023-04-05T15:26:03.354Z,33.17
2023-04-05T15:28:35.526Z,33.38
2023-04-05T15:31:03.616Z,30.94
2023-04-05T15:33:31.889Z,32.18
2023-04-05T15:35:59.274Z,32.11
2023-04-05T15:38:26.540Z,32.61
2023-04-05T15:40:54.073Z,32.83
2023-04-05T15:43:21.370Z,33.70
2023-04-05T15:45:49.839Z,33.73
2023-04-05T15:48:16.878Z,34.06
2023-04-05T15:50:44.187Z,33.38
2023-04-05T15:53:11.425Z,33.53
2023-04-05T15:55:39.079Z,34.23
2023-04-05T15:58:06.089Z,35.33
2023-04-05T16:00:33.385Z,34.34
2023-04-05T16:03:02.589Z,34.14
2023-04-05T16:05:29.856Z,33.30
2023-04-05T16:07:56.923Z,33.88
2023-04-05T16:10:25.093Z,33.54
2023-04-05T16:12:53.304Z,33.92
2023-04-05T16:15:20.487Z,32.17
2023-04-05T16:17:48.859Z,32.52
2023-04-05T16:20:17.699Z,33.43
2023-04-05T16:22:47.844Z,32.81
2023-04-05T16:25:14.930Z,33.28
2023-04-05T16:27:44.089Z,31.81
2023-04-05T16:30:11.898Z,32.20
2023-04-05T16:32:40.656Z,32.43
2023-04-05T16:35:10.324Z,31.70
2023-04-05T16:37:38.987Z,30.61
2023-04-05T16:40:08.610Z,30.87
2023-04-05T16:42:37.545Z,31.34
2023-04-05T16:45:10.571Z,31.84
2023-04-05T16:47:38.627Z,31.49
2023-04-05T16:50:07.157Z,31.67
2023-04-05T16:52:36.982Z,31.82
2023-04-05T16:55:10.856Z,31.04
2023-04-05T16:57:37.945Z,30.81
2023-04-05T17:00:08.288Z,30.63
2023-04-05T17:02:37.704Z,31.37
2023-04-05T17:05:06.302Z,32.07
2023-04-05T17:07:38.964Z,31.40
2023-04-05T17:10:15.798Z,31.34
2023-04-05T17:12:47.238Z,31.62
2023-04-05T17:15:14.294Z,31.29
2023-04-05T17:17:43.349Z,31.11
2023-04-05T17:20:15.199Z,32.00
2023-04-05T17:22:48.567Z,31.37
2023-04-05T17:25:23.260Z,30.52
2023-04-05T17:27:53.187Z,31.06
2023-04-05T17:30:32.155Z,31.27
2023-04-05T17:33:00.648Z,31.34
2023-04-05T17:35:28.086Z,31.77
2023-04-05T17:37:57.608Z,31.86
2023-04-05T17:40:26.276Z,32.03
2023-04-05T17:42:57.593Z,32.24
2023-04-05T17:45:25.130Z,32.47
2023-04-05T17:47:52.257Z,31.55
2023-04-05T17:50:19.873Z,31.26
2023-04-05T17:52:47.040Z,31.24
2023-04-05T17:55:14.529Z,32.11
2023-04-05T17:57:42.895Z,33.11
2023-04-05T18:00:11.884Z,33.85
2023-04-05T18:02:38.954Z,33.98
2023-04-05T18:05:09.918Z,37.38
2023-04-05T18:07:37.883Z,39.13
2023-04-05T18:10:12.444Z,38.45
2023-04-05T18:12:39.463Z,37.15
2023-04-05T18:15:08.751Z,37.74
2023-04-05T18:17:36.595Z,38.45
2023-04-05T18:20:06.298Z,38.30
2023-04-05T18:22:37.283Z,38.50
2023-04-05T18:25:05.613Z,38.64
2023-04-05T18:27:32.924Z,37.84
2023-04-05T18:30:00.002Z,38.43
2023-04-05T18:32:28.734Z,38.32
2023-04-05T18:34:56.138Z,38.96
2023-04-05T18:37:25.547Z,49.65
2023-04-05T18:39:52.837Z,53.36
2023-04-05T18:42:20.096Z,52.87
2023-04-05T18:44:47.119Z,53.20
2023-04-05T18:47:14.228Z,54.35
2023-04-05T18:49:42.524Z,54.42
2023-04-05T18:52:09.566Z,55.45
2023-04-05T18:54:39.660Z,57.42
2023-04-05T18:57:07.182Z,56.80
2023-04-05T18:59:34.286Z,53.21
2023-04-05T19:02:01.657Z,56.18
2023-04-05T19:04:29.304Z,55.39
2023-04-05T19:06:58.052Z,54.83
2023-04-05T19:09:25.587Z,54.43
2023-04-05T19:11:53.563Z,53.55
2023-04-05T19:14:21.105Z,54.84
2023-04-05T19:16:48.159Z,57.06
2023-04-05T19:19:15.650Z,58.96
2023-04-05T19:21:44.045Z,58.42
2023-04-05T19:24:14.434Z,59.43
2023-04-05T19:26:43.079Z,59.52
2023-04-05T19:29:12.039Z,59.30
2023-04-05T19:31:41.027Z,59.35
2023-04-05T19:34:09.306Z,59.13
2023-04-05T19:36:38.033Z,60.20
2023-04-05T19:39:10.401Z,61.22
2023-04-05T19:41:38.904Z,61.19
2023-04-05T19:44:10.976Z,61.52
2023-04-05T19:46:40.916Z,61.09
2023-04-05T19:49:13.863Z,60.35
2023-04-05T19:51:42.193Z,59.86
2023-04-05T19:54:22.499Z,60.74
2023-04-05T19:56:51.926Z,60.87
2023-04-05T19:59:32.588Z,61.75
2023-04-05T20:02:01.952Z,62.42
2023-04-05T20:04:29.053Z,60.37
2023-04-05T20:06:56.118Z,60.19
2023-04-05T20:09:26.636Z,60.54
2023-04-05T20:11:59.321Z,61.05
2023-04-05T20:14:33.424Z,60.98
2023-04-05T20:17:00.562Z,60.96
2023-04-05T20:19:30.058Z,60.43
2023-04-05T20:22:01.078Z,57.36
2023-04-05T20:24:29.986Z,55.99
2023-04-05T20:27:02.097Z,56.47
2023-04-05T20:29:33.551Z,56.51
2023-04-05T20:32:03.309Z,54.65
2023-04-05T20:34:33.532Z,54.36
2023-04-05T20:37:02.422Z,54.39
2023-04-05T20:40:54.582Z,56.54
2023-04-05T20:43:25.041Z,59.58
2023-04-05T20:45:52.387Z,60.32
2023-04-05T20:48:19.496Z,59.63
2023-04-05T20:50:46.675Z,57.39
2023-04-05T20:53:14.061Z,56.41
2023-04-05T20:55:41.316Z,56.75
2023-04-05T20:58:08.321Z,57.58
2023-04-05T21:00:36.746Z,59.03
2023-04-05T21:03:04.011Z,59.33
2023-04-05T21:05:31.095Z,59.18
2023-04-05T21:07:58.398Z,58.31
2023-04-05T21:10:25.285Z,59.42
2023-04-05T21:12:54.092Z,59.77
2023-04-05T21:15:21.558Z,60.16
2023-04-05T21:17:50.039Z,60.03
2023-04-05T21:20:17.029Z,59.39
2023-04-05T21:22:45.094Z,58.32
2023-04-05T21:25:14.697Z,57.96
2023-04-05T21:27:41.738Z,57.62
2023-04-05T21:30:09.983Z,57.64
2023-04-05T21:32:38.036Z,57.89
2023-04-05T21:35:07.898Z,58.53
2023-04-05T21:37:35.257Z,58.59
2023-04-05T21:40:02.431Z,58.89
2023-04-05T21:42:30.012Z,59.16
2023-04-05T21:44:57.589Z,58.87
2023-04-05T21:47:24.766Z,58.50
2023-04-05T21:49:51.847Z,59.77
2023-04-05T21:52:20.310Z,63.43
2023-04-05T21:54:47.725Z,65.14
2023-04-05T21:57:14.724Z,66.26
2023-04-05T21:59:42.046Z,66.14
2023-04-05T22:02:09.381Z,65.94
2023-04-05T22:04:36.437Z,66.47
2023-04-05T22:07:04.231Z,66.38
2023-04-05T22:09:33.048Z,66.07
2023-04-05T22:12:01.445Z,66.25
2023-04-05T22:14:28.754Z,66.95
2023-04-05T22:16:55.993Z,67.56
2023-04-05T22:19:23.659Z,68.22
2023-04-05T22:21:50.828Z,68.17
2023-04-05T22:24:17.858Z,67.70
2023-04-05T22:26:46.174Z,67.96
2023-04-05T22:29:13.277Z,69.29
2023-04-05T22:31:40.314Z,68.82
2023-04-05T22:34:07.302Z,68.75
2023-04-05T22:36:34.648Z,69.32
2023-04-05T22:39:01.757Z,70.06
2023-04-05T22:41:28.789Z,69.58
2023-04-05T22:43:57.142Z,69.24
2023-04-05T22:46:24.181Z,69.38
2023-04-05T22:48:51.561Z,69.26
2023-04-05T22:51:18.569Z,69.27
2023-04-05T22:53:45.531Z,68.93
2023-04-05T22:56:14.086Z,70.38
2023-04-05T22:58:41.302Z,71.56
2023-04-05T23:01:09.761Z,72.26
2023-04-05T23:03:36.720Z,71.36
2023-04-05T23:06:04.776Z,72.57
2023-04-05T23:08:32.043Z,72.76
2023-04-05T23:10:58.995Z,73.12
2023-04-05T23:13:26.073Z,72.18
2023-04-05T23:15:53.230Z,72.64
2023-04-05T23:18:21.647Z,72.80
2023-04-05T23:20:49.615Z,72.72
2023-04-05T23:23:16.674Z,72.37
2023-04-05T23:25:43.740Z,71.79
2023-04-05T23:28:10.788Z,73.38
2023-04-05T23:30:38.103Z,74.34
2023-04-05T23:33:05.264Z,74.08
2023-04-05T23:35:33.755Z,75.17
2023-04-05T23:38:01.770Z,76.54
2023-04-05T23:41:35.836Z,77.11
2023-04-05T23:44:02.915Z,77.03
2023-04-05T23:46:29.899Z,76.31
2023-04-05T23:48:56.983Z,74.80
2023-04-05T23:51:25.409Z,73.43
2023-04-05T23:53:52.430Z,73.60
2023-04-05T23:56:19.467Z,73.88
2023-04-05T23:58:46.597Z,72.72
